createdAt,value
2023-05-11T00:00:34.335Z,99651.69
2023-05-11T00:03:02.466Z,99661.53
2023-05-11T00:05:30.271Z,99653.25
2023-05-11T00:07:57.891Z,99649.56
2023-05-11T00:10:25.475Z,99650.25
2023-05-11T00:12:53.141Z,99646.59
2023-05-11T00:15:21.145Z,99650.25
2023-05-11T00:17:48.813Z,99651.25
2023-05-11T00:20:17.022Z,99639.00
2023-05-11T00:22:45.095Z,99642.69
2023-05-11T00:25:12.699Z,99638.47
2023-05-11T00:27:41.703Z,99638.59
2023-05-11T00:30:10.292Z,99642.44
2023-05-11T00:32:37.957Z,99638.75
2023-05-11T00:35:05.756Z,99641.13
2023-05-11T00:37:33.479Z,99644.81
2023-05-11T00:40:01.482Z,99643.66
2023-05-11T00:42:31.180Z,99634.78
2023-05-11T00:44:58.744Z,99636.91
2023-05-11T00:47:26.299Z,99638.47
2023-05-11T00:49:53.971Z,99630.44
2023-05-11T00:52:21.943Z,99622.72
2023-05-11T00:54:49.729Z,99629.06
2023-05-11T00:57:17.346Z,99632.88
2023-05-11T00:59:44.958Z,99631.31
2023-05-11T01:02:12.610Z,99642.16
2023-05-11T01:04:40.264Z,99639.63
2023-05-11T01:07:08.064Z,99644.00
2023-05-11T01:09:35.645Z,99644.00
2023-05-11T01:12:03.266Z,99638.78
2023-05-11T01:14:30.814Z,99640.47
2023-05-11T01:16:58.917Z,99644.97
2023-05-11T01:19:26.598Z,99639.63
2023-05-11T01:21:54.692Z,99645.97
2023-05-11T01:24:22.740Z,99639.63
2023-05-11T01:26:50.378Z,99645.81
2023-05-11T01:29:18.334Z,99647.63
2023-05-11T01:31:46.169Z,99653.53
2023-05-11T01:34:13.856Z,99650.72
2023-05-11T01:36:41.411Z,99652.41
2023-05-11T01:39:09.042Z,99650.28
2023-05-11T01:41:37.015Z,99649.16
2023-05-11T01:44:04.576Z,99645.78
2023-05-11T01:46:32.763Z,99645.78
2023-05-11T01:49:00.771Z,99656.63
2023-05-11T01:51:28.430Z,99654.09
2023-05-11T01:53:56.412Z,99654.94
2023-05-11T01:56:24.633Z,99650.59
2023-05-11T01:58:52.283Z,99657.63
2023-05-11T02:01:19.938Z,99651.41
2023-05-11T02:03:47.692Z,99661.16
2023-05-11T02:06:15.516Z,99659.16
2023-05-11T02:08:44.042Z,99660.84
2023-05-11T02:11:11.680Z,99659.53
2023-05-11T02:13:39.408Z,99662.94
2023-05-11T02:16:07.063Z,99657.28
2023-05-11T02:18:35.184Z,99651.13
2023-05-11T02:21:02.833Z,99650.13
2023-05-11T02:23:30.401Z,99662.63
2023-05-11T02:25:58.150Z,99653.78
2023-05-11T02:28:25.895Z,99661.50
2023-05-11T02:30:54.236Z,99660.66
2023-05-11T02:33:22.285Z,99650.94
2023-05-11T02:35:49.841Z,99650.94
2023-05-11T02:38:17.400Z,99647.44
2023-05-11T02:40:45.013Z,99651.94
2023-05-11T02:43:13.063Z,99657.41
2023-05-11T02:45:41.213Z,99669.13
2023-05-11T02:48:08.946Z,99657.59
2023-05-11T02:50:36.500Z,99659.53
2023-05-11T02:53:04.571Z,99665.75
2023-05-11T02:55:32.558Z,99659.28
2023-05-11T02:58:00.245Z,99666.31
2023-05-11T03:00:27.883Z,99657.28
2023-05-11T03:02:55.634Z,99659.97
2023-05-11T03:05:24.354Z,99660.81
2023-05-11T03:07:52.401Z,99667.97
2023-05-11T03:10:20.417Z,99667.97
2023-05-11T03:12:48.254Z,99665.44
2023-05-11T03:15:16.248Z,99668.28
2023-05-11T03:17:43.909Z,99675.31
2023-05-11T03:20:11.719Z,99670.78
2023-05-11T03:22:39.428Z,99668.13
2023-05-11T03:25:07.086Z,99663.75
2023-05-11T03:27:34.701Z,99660.41
2023-05-11T03:30:02.452Z,99663.22
2023-05-11T03:32:30.977Z,99665.06
2023-05-11T03:34:58.521Z,99657.31
2023-05-11T03:37:26.131Z,99658.47
2023-05-11T03:39:53.710Z,99664.78
2023-05-11T03:42:21.282Z,99656.06
2023-05-11T03:44:49.242Z,99654.53
2023-05-11T03:47:17.120Z,99657.38
2023-05-11T03:49:44.746Z,99655.66
2023-05-11T03:52:12.332Z,99657.38
2023-05-11T03:54:39.952Z,99651.84
2023-05-11T03:57:07.955Z,99651.72
2023-05-11T03:59:37.036Z,99651.41
2023-05-11T04:02:04.741Z,99653.13
2023-05-11T04:04:32.402Z,99658.16
2023-05-11T04:06:59.942Z,99654.50
2023-05-11T04:09:27.916Z,99645.50
2023-05-11T04:11:55.605Z,99651.53
2023-05-11T04:14:23.177Z,99651.53
2023-05-11T04:16:50.809Z,99654.19
2023-05-11T04:19:18.402Z,99654.19
2023-05-11T04:21:47.232Z,99660.41
2023-05-11T04:24:14.963Z,99653.91
2023-05-11T04:26:42.502Z,99657.41
2023-05-11T04:29:10.107Z,99660.94
2023-05-11T04:31:37.761Z,99658.97
2023-05-11T04:34:06.175Z,99660.66
2023-05-11T04:36:34.051Z,99659.81
2023-05-11T04:39:01.660Z,99658.97
2023-05-11T04:41:29.206Z,99673.34
2023-05-11T04:43:57.153Z,99667.31
2023-05-11T04:46:25.138Z,99669.97
2023-05-11T04:48:52.753Z,99673.63
2023-05-11T04:51:20.519Z,99674.47
2023-05-11T04:53:48.168Z,99676.31
2023-05-11T04:56:15.828Z,99670.25
2023-05-11T04:58:43.833Z,99677.59
2023-05-11T05:01:11.515Z,99673.38
2023-05-11T05:03:39.148Z,99678.88
2023-05-11T05:06:06.731Z,99671.69
2023-05-11T05:08:34.384Z,99675.34
2023-05-11T05:11:02.360Z,99678.16
2023-05-11T05:13:29.960Z,99682.00
2023-05-11T05:15:57.790Z,99680.44
2023-05-11T05:18:25.381Z,99681.44
2023-05-11T05:20:53.014Z,99677.22
2023-05-11T05:23:21.070Z,99690.44
2023-05-11T05:25:48.701Z,99690.16
2023-05-11T05:28:16.840Z,99682.81
2023-05-11T05:30:44.547Z,99684.22
2023-05-11T05:33:12.247Z,99695.31
2023-05-11T05:35:40.332Z,99696.72
2023-05-11T05:38:08.380Z,99696.41
2023-05-11T05:40:39.486Z,99707.66
2023-05-11T05:43:18.838Z,99707.53
2023-05-11T05:45:46.878Z,99710.75
2023-05-11T05:48:14.740Z,99712.13
2023-05-11T05:50:42.503Z,99714.38
2023-05-11T05:53:10.160Z,99715.78
2023-05-11T05:55:37.804Z,99715.19
2023-05-11T05:58:05.841Z,99715.44
2023-05-11T06:00:33.589Z,99716.84
2023-05-11T06:03:01.280Z,99715.41
2023-05-11T06:05:29.101Z,99714.25
2023-05-11T06:08:09.212Z,99717.63
2023-05-11T06:10:39.165Z,99713.81
2023-05-11T06:13:06.830Z,99722.38
2023-05-11T06:15:34.480Z,99722.78
2023-05-11T06:18:02.371Z,99714.13
2023-05-11T06:20:30.055Z,99715.94
2023-05-11T06:22:58.233Z,99709.72
2023-05-11T06:25:25.948Z,99715.97
2023-05-11T06:27:53.697Z,99715.22
2023-05-11T06:30:21.851Z,99716.44
2023-05-11T06:32:49.685Z,99717.84
2023-05-11T06:35:17.934Z,99716.66
2023-05-11T06:37:45.657Z,99716.53
2023-05-11T06:40:13.767Z,99719.75
2023-05-11T06:42:41.500Z,99715.94
2023-05-11T06:45:09.231Z,99721.97
2023-05-11T06:47:37.513Z,99724.50
2023-05-11T06:50:05.301Z,99721.38
2023-05-11T06:52:33.242Z,99722.72
2023-05-11T06:55:01.965Z,99722.44
2023-05-11T06:57:29.645Z,99722.28
2023-05-11T06:59:58.203Z,99731.69
2023-05-11T07:02:26.010Z,99727.88
2023-05-11T07:04:55.355Z,99731.91
2023-05-11T07:07:23.136Z,99731.28
2023-05-11T07:09:50.959Z,99736.03
2023-05-11T07:12:19.189Z,99731.75
2023-05-11T07:14:47.400Z,99735.50
2023-05-11T07:17:15.302Z,99720.25
2023-05-11T07:19:43.138Z,99729.13
2023-05-11T07:22:12.189Z,99718.38
2023-05-11T07:24:42.097Z,99725.16
2023-05-11T07:27:09.925Z,99724.81
2023-05-11T07:29:37.720Z,99724.38
2023-05-11T07:32:05.652Z,99725.56
2023-05-11T07:34:33.471Z,99723.41
2023-05-11T07:37:02.322Z,99727.78
2023-05-11T07:39:30.413Z,99733.16
2023-05-11T07:41:58.215Z,99734.00
2023-05-11T07:44:26.480Z,99727.50
2023-05-11T07:46:55.362Z,99726.16
2023-05-11T07:49:31.299Z,99732.22
2023-05-11T07:52:07.658Z,99732.75
2023-05-11T07:54:35.477Z,99732.56
2023-05-11T07:57:04.201Z,99727.72
2023-05-11T07:59:32.834Z,99730.41
2023-05-11T08:02:00.773Z,99732.44
2023-05-11T08:04:28.542Z,99738.81
2023-05-11T08:06:56.867Z,99737.94
2023-05-11T08:09:24.828Z,99742.63
2023-05-11T08:11:54.132Z,99741.09
2023-05-11T08:14:22.225Z,99736.75
2023-05-11T08:16:50.689Z,99740.09
2023-05-11T08:19:18.871Z,99741.00
2023-05-11T08:21:47.565Z,99742.44
2023-05-11T08:24:15.877Z,99749.34
2023-05-11T08:26:43.769Z,99748.06
2023-05-11T08:29:11.748Z,99743.41
2023-05-11T08:31:39.626Z,99740.25
2023-05-11T08:34:17.701Z,99745.81
2023-05-11T08:36:47.946Z,99742.00
2023-05-11T08:39:24.670Z,99739.50
2023-05-11T08:42:00.999Z,99739.88
2023-05-11T08:44:29.294Z,99735.19
2023-05-11T08:47:14.395Z,99740.72
2023-05-11T08:49:45.891Z,99744.25
2023-05-11T08:52:13.632Z,99742.25
2023-05-11T08:54:41.471Z,99742.09
2023-05-11T08:57:10.436Z,99745.13
2023-05-11T08:59:38.474Z,99740.44
2023-05-11T09:02:06.450Z,99736.78
2023-05-11T09:04:34.320Z,99745.03
2023-05-11T09:07:02.448Z,99735.97
2023-05-11T09:09:30.792Z,99739.97
2023-05-11T09:11:58.678Z,99736.47
2023-05-11T09:14:27.733Z,99727.50
2023-05-11T09:16:55.607Z,99728.56
2023-05-11T09:19:23.485Z,99725.94
2023-05-11T09:21:52.791Z,99733.94
2023-05-11T09:24:20.610Z,99723.06
2023-05-11T09:26:48.775Z,99723.81
2023-05-11T09:29:16.731Z,99721.63
2023-05-11T09:31:44.692Z,99711.34
2023-05-11T09:34:13.659Z,99713.19
2023-05-11T09:36:41.330Z,99713.94
2023-05-11T09:39:15.339Z,99716.03
2023-05-11T09:41:44.090Z,99705.31
2023-05-11T09:44:11.933Z,99704.03
2023-05-11T09:46:40.327Z,99709.81
2023-05-11T09:49:08.252Z,99709.22
2023-05-11T09:51:35.918Z,99705.72
2023-05-11T09:54:04.836Z,99708.47
2023-05-11T09:56:33.744Z,99703.28
2023-05-11T09:59:02.093Z,99705.81
2023-05-11T10:01:30.292Z,99701.63
2023-05-11T10:04:08.841Z,99700.75
2023-05-11T10:06:41.521Z,99690.44
2023-05-11T10:09:10.009Z,99685.84
2023-05-11T10:11:37.848Z,99697.06
2023-05-11T10:14:05.596Z,99690.63
2023-05-11T10:16:33.783Z,99686.59
2023-05-11T10:19:02.204Z,99687.41
2023-05-11T10:21:30.400Z,99684.97
2023-05-11T10:23:58.893Z,99683.50
2023-05-11T10:26:26.856Z,99679.69
2023-05-11T10:28:54.616Z,99694.50
2023-05-11T10:31:24.541Z,99693.03
2023-05-11T10:33:53.199Z,99689.13
2023-05-11T10:36:21.757Z,99691.06
2023-05-11T10:38:49.846Z,99697.06
2023-05-11T10:41:17.876Z,99693.78
2023-05-11T10:43:46.049Z,99692.53
2023-05-11T10:46:17.750Z,99698.88
2023-05-11T10:48:45.688Z,99697.97
2023-05-11T10:51:13.552Z,99691.44
2023-05-11T10:53:41.452Z,99698.16
2023-05-11T10:56:10.419Z,99693.31
2023-05-11T10:58:39.349Z,99694.53
2023-05-11T11:01:07.315Z,99690.31
2023-05-11T11:03:35.241Z,99695.09
2023-05-11T11:06:03.135Z,99695.44
2023-05-11T11:08:31.284Z,99693.41
2023-05-11T11:10:59.957Z,99692.00
2023-05-11T11:13:27.839Z,99692.25
2023-05-11T11:15:55.867Z,99687.63
2023-05-11T11:18:23.930Z,99683.16
2023-05-11T11:20:53.091Z,99685.94
2023-05-11T11:23:21.615Z,99672.91
2023-05-11T11:25:49.490Z,99665.81
2023-05-11T11:28:17.443Z,99672.47
2023-05-11T11:30:45.705Z,99674.91
2023-05-11T11:33:13.707Z,99668.63
2023-05-11T11:35:42.112Z,99673.69
2023-05-11T11:38:10.783Z,99668.44
2023-05-11T11:40:49.610Z,99666.72
2023-05-11T11:43:20.023Z,99669.31
2023-05-11T11:45:48.264Z,99668.25
2023-05-11T11:48:16.339Z,99673.97
2023-05-11T11:50:44.339Z,99675.31
2023-05-11T11:53:12.700Z,99671.13
2023-05-11T11:55:40.402Z,99667.31
2023-05-11T11:58:08.958Z,99669.13
2023-05-11T12:00:36.844Z,99668.59
2023-05-11T12:03:04.879Z,99667.53
2023-05-11T12:05:32.859Z,99666.53
2023-05-11T12:08:00.760Z,99670.94
2023-05-11T12:10:29.556Z,99667.06
2023-05-11T12:13:00.015Z,99670.50
2023-05-11T12:15:28.195Z,99662.97
2023-05-11T12:17:56.083Z,99664.84
2023-05-11T12:20:24.143Z,99665.69
2023-05-11T12:22:52.322Z,99659.78
2023-05-11T12:25:20.343Z,99664.28
2023-05-11T12:27:48.464Z,99657.59
2023-05-11T12:30:16.453Z,99662.16
2023-05-11T12:32:44.289Z,99662.22
2023-05-11T12:35:13.883Z,99657.25
2023-05-11T12:37:41.875Z,99654.78
2023-05-11T12:40:10.570Z,99650.94
2023-05-11T12:42:38.540Z,99651.28
2023-05-11T12:45:06.351Z,99651.31
2023-05-11T12:47:34.955Z,99655.94
2023-05-11T12:50:03.762Z,99666.06
2023-05-11T12:52:31.599Z,99663.38
2023-05-11T12:55:01.220Z,99657.63
2023-05-11T12:57:29.216Z,99662.34
2023-05-11T12:59:57.732Z,99662.63
2023-05-11T13:02:25.558Z,99665.22
2023-05-11T13:04:53.554Z,99663.59
2023-05-11T13:07:22.274Z,99662.72
2023-05-11T13:09:50.149Z,99658.84
2023-05-11T13:12:19.791Z,99647.53
2023-05-11T13:14:47.915Z,99651.38
2023-05-11T13:17:16.371Z,99653.16
2023-05-11T13:19:44.690Z,99657.41
2023-05-11T13:22:12.703Z,99666.72
2023-05-11T13:24:41.304Z,99659.53
2023-05-11T13:27:09.222Z,99664.78
2023-05-11T13:29:39.771Z,99660.41
2023-05-11T13:32:07.685Z,99669.41
2023-05-11T13:34:37.455Z,99672.94
2023-05-11T13:37:06.034Z,99676.03
2023-05-11T13:39:34.152Z,99671.47
2023-05-11T13:42:02.069Z,99684.81
2023-05-11T13:44:29.830Z,99678.41
2023-05-11T13:46:57.704Z,99681.09
2023-05-11T13:49:26.012Z,99671.38
2023-05-11T13:51:55.630Z,99677.78
2023-05-11T13:54:23.450Z,99682.47
2023-05-11T13:56:51.363Z,99684.16
2023-05-11T13:59:19.362Z,99682.16
2023-05-11T14:01:49.540Z,99676.44
2023-05-11T14:04:17.775Z,99675.06
2023-05-11T14:06:45.966Z,99671.88
2023-05-11T14:09:13.801Z,99673.09
2023-05-11T14:11:41.632Z,99680.44
2023-05-11T14:14:10.213Z,99688.50
2023-05-11T14:16:38.097Z,99681.47
2023-05-11T14:19:06.107Z,99683.47
2023-05-11T14:21:34.077Z,99685.50
2023-05-11T14:24:10.480Z,99684.66
2023-05-11T14:26:40.386Z,99687.34
2023-05-11T14:29:08.492Z,99682.97
2023-05-11T14:31:37.102Z,99691.19
2023-05-11T14:34:05.338Z,99694.91
2023-05-11T14:36:33.264Z,99702.97
2023-05-11T14:39:02.125Z,99696.94
2023-05-11T14:41:30.015Z,99693.38
2023-05-11T14:43:57.916Z,99705.00
2023-05-11T14:46:26.842Z,99695.91
2023-05-11T14:48:55.083Z,99697.44
2023-05-11T14:51:23.465Z,99707.19
2023-05-11T14:53:51.313Z,99706.31
2023-05-11T14:56:19.241Z,99702.66
2023-05-11T14:58:47.555Z,99694.41
2023-05-11T15:01:15.553Z,99705.84
2023-05-11T15:03:44.276Z,99700.78
2023-05-11T15:06:12.230Z,99699.28
2023-05-11T15:08:40.087Z,99697.94
2023-05-11T15:11:07.973Z,99699.47
2023-05-11T15:13:35.854Z,99704.00
2023-05-11T15:16:04.323Z,99700.47
2023-05-11T15:18:32.238Z,99698.63
2023-05-11T15:21:02.150Z,99695.78
2023-05-11T15:23:30.072Z,99704.50
2023-05-11T15:25:59.066Z,99699.97
2023-05-11T15:28:28.343Z,99696.28
2023-05-11T15:30:56.079Z,99698.31
2023-05-11T15:33:24.153Z,99691.91
2023-05-11T15:35:51.971Z,99701.00
2023-05-11T15:38:19.892Z,99701.16
2023-05-11T15:40:48.377Z,99709.56
2023-05-11T15:43:16.495Z,99710.88
2023-05-11T15:45:44.532Z,99712.06
2023-05-11T15:48:12.555Z,99711.25
2023-05-11T15:50:40.704Z,99701.66
2023-05-11T15:53:09.246Z,99705.50
2023-05-11T15:55:37.342Z,99707.53
2023-05-11T15:58:05.273Z,99711.38
2023-05-11T16:00:33.005Z,99707.19
2023-05-11T16:03:01.874Z,99707.34
2023-05-11T16:05:30.675Z,99709.00
2023-05-11T16:08:00.232Z,99699.59
2023-05-11T16:10:28.136Z,99711.88
2023-05-11T16:12:58.232Z,99707.81
2023-05-11T16:15:26.689Z,99702.59
2023-05-11T16:17:55.307Z,99711.00
2023-05-11T16:20:23.084Z,99704.94
2023-05-11T16:22:50.887Z,99709.59
2023-05-11T16:25:19.108Z,99713.28
2023-05-11T16:27:46.937Z,99713.28
2023-05-11T16:30:24.148Z,99704.91
2023-05-11T16:32:52.898Z,99699.00
2023-05-11T16:35:20.980Z,99702.19
2023-05-11T16:37:49.320Z,99697.13
2023-05-11T16:40:19.788Z,99703.84
2023-05-11T16:42:48.673Z,99699.28
2023-05-11T16:45:16.753Z,99700.91
2023-05-11T16:47:45.639Z,99697.19
2023-05-11T16:50:14.998Z,99688.09
2023-05-11T16:52:43.708Z,99696.66
2023-05-11T16:55:12.116Z,99700.81
2023-05-11T16:57:39.976Z,99690.56
2023-05-11T17:00:07.767Z,99688.38
2023-05-11T17:02:35.808Z,99697.72
2023-05-11T17:05:06.092Z,99690.84
2023-05-11T17:07:34.027Z,99692.00
2023-05-11T17:10:02.025Z,99694.84
2023-05-11T17:12:29.890Z,99694.19
2023-05-11T17:14:58.125Z,99688.81
2023-05-11T17:17:28.039Z,99687.94
2023-05-11T17:19:56.002Z,99694.19
2023-05-11T17:22:24.026Z,99688.63
2023-05-11T17:24:52.114Z,99686.66
2023-05-11T17:27:20.027Z,99691.69
2023-05-11T17:29:48.413Z,99691.84
2023-05-11T17:32:16.554Z,99693.84
2023-05-11T17:34:44.762Z,99693.31
2023-05-11T17:37:23.917Z,99700.03
2023-05-11T17:39:59.670Z,99696.97
2023-05-11T17:42:27.670Z,99697.28
2023-05-11T17:44:55.530Z,99695.06
2023-05-11T17:47:23.452Z,99695.38
2023-05-11T17:49:51.451Z,99699.38
2023-05-11T17:52:20.355Z,99698.84
2023-05-11T17:54:48.340Z,99700.81
2023-05-11T17:57:16.286Z,99700.28
2023-05-11T17:59:44.527Z,99698.78
2023-05-11T18:02:13.077Z,99698.94
2023-05-11T18:04:42.595Z,99701.75
2023-05-11T18:07:10.418Z,99702.09
2023-05-11T18:09:38.565Z,99704.91
2023-05-11T18:12:06.537Z,99709.44
2023-05-11T18:14:34.472Z,99705.06
2023-05-11T18:17:03.044Z,99704.25
2023-05-11T18:19:30.905Z,99703.53
2023-05-11T18:21:59.156Z,99705.53
2023-05-11T18:24:27.304Z,99713.91
2023-05-11T18:26:55.156Z,99711.50
2023-05-11T18:29:23.346Z,99716.06
2023-05-11T18:31:51.203Z,99710.03
2023-05-11T18:34:19.135Z,99709.31
2023-05-11T18:36:47.044Z,99713.84
2023-05-11T18:39:16.305Z,99712.84
2023-05-11T18:41:44.847Z,99708.47
2023-05-11T18:44:14.356Z,99710.16
2023-05-11T18:46:42.647Z,99720.03
2023-05-11T18:49:10.759Z,99714.00
2023-05-11T18:51:38.849Z,99726.53
2023-05-11T18:54:07.476Z,99726.72
2023-05-11T18:56:35.471Z,99722.50
2023-05-11T18:59:03.362Z,99717.47
2023-05-11T19:01:46.617Z,99722.13
2023-05-11T19:04:18.019Z,99727.78
2023-05-11T19:06:45.921Z,99731.75
2023-05-11T19:09:14.245Z,99731.22
2023-05-11T19:11:42.168Z,99731.53
2023-05-11T19:14:10.666Z,99734.69
2023-05-11T19:16:39.186Z,99735.84
2023-05-11T19:19:07.570Z,99731.63
2023-05-11T19:21:40.331Z,99742.66
2023-05-11T19:24:08.151Z,99740.13
2023-05-11T19:26:36.040Z,99730.53
2023-05-11T19:29:06.149Z,99743.25
2023-05-11T19:31:34.011Z,99734.53
2023-05-11T19:34:02.220Z,99752.28
2023-05-11T19:36:30.279Z,99751.59
2023-05-11T19:38:58.166Z,99746.25
2023-05-11T19:41:26.455Z,99741.88
2023-05-11T19:43:54.342Z,99747.53
2023-05-11T19:46:22.608Z,99753.88
2023-05-11T19:48:50.576Z,99746.00
2023-05-11T19:51:19.215Z,99748.13
2023-05-11T19:53:47.708Z,99744.75
2023-05-11T19:56:15.674Z,99741.41
2023-05-11T19:58:43.605Z,99737.19
2023-05-11T20:01:11.370Z,99739.19
2023-05-11T20:03:39.293Z,99739.31
2023-05-11T20:06:08.127Z,99734.97
2023-05-11T20:08:35.935Z,99738.63
2023-05-11T20:11:05.288Z,99737.91
2023-05-11T20:13:33.233Z,99731.88
2023-05-11T20:16:00.967Z,99740.75
2023-05-11T20:18:29.221Z,99731.06
2023-05-11T20:20:57.235Z,99729.19
2023-05-11T20:23:25.067Z,99732.72
2023-05-11T20:25:52.924Z,99724.53
2023-05-11T20:28:21.788Z,99722.69
2023-05-11T20:30:51.680Z,99720.88
2023-05-11T20:35:52.465Z,99718.88
2023-05-11T20:38:21.103Z,99716.06
2023-05-11T20:40:49.007Z,99717.44
2023-05-11T20:43:17.578Z,99713.75
2023-05-11T20:45:45.679Z,99720.66
2023-05-11T20:48:13.459Z,99714.28
2023-05-11T20:50:41.273Z,99713.28
2023-05-11T20:53:09.574Z,99708.66
2023-05-11T20:55:37.843Z,99715.69
2023-05-11T20:58:05.778Z,99708.34
2023-05-11T21:00:33.933Z,99701.97
2023-05-11T21:03:01.727Z,99700.16
2023-05-11T21:05:29.542Z,99701.97
2023-05-11T21:07:57.864Z,99694.78
2023-05-11T21:10:25.608Z,99696.63
2023-05-11T21:12:53.383Z,99692.25
2023-05-11T21:15:21.495Z,99688.59
2023-05-11T21:17:49.282Z,99698.31
2023-05-11T21:20:18.057Z,99696.47
2023-05-11T21:22:45.973Z,99693.66
2023-05-11T21:25:13.825Z,99689.66
2023-05-11T21:27:42.083Z,99695.56
2023-05-11T21:30:10.224Z,99691.06
2023-05-11T21:32:38.475Z,99684.50
2023-05-11T21:35:06.290Z,99683.38
2023-05-11T21:37:35.692Z,99685.91
2023-05-11T21:40:03.785Z,99687.91
2023-05-11T21:42:34.972Z,99681.69
2023-05-11T21:45:03.082Z,99677.34
2023-05-11T21:47:30.818Z,99676.66
2023-05-11T21:49:58.727Z,99682.00
2023-05-11T21:52:26.415Z,99674.97
2023-05-11T21:54:54.074Z,99672.59
2023-05-11T21:57:22.248Z,99675.56
2023-05-11T21:59:51.338Z,99666.84
2023-05-11T22:02:19.114Z,99669.00
2023-05-11T22:04:47.415Z,99664.94
2023-05-11T22:07:15.168Z,99667.59
2023-05-11T22:09:43.239Z,99669.44
2023-05-11T22:12:10.920Z,99653.34
2023-05-11T22:14:38.692Z,99660.44
2023-05-11T22:17:06.365Z,99660.44
2023-05-11T22:19:34.127Z,99658.72
2023-05-11T22:22:03.653Z,99656.88
2023-05-11T22:24:31.551Z,99653.34
2023-05-11T22:26:59.583Z,99656.75
2023-05-11T22:29:27.269Z,99648.72
2023-05-11T22:31:54.971Z,99644.34
2023-05-11T22:34:23.235Z,99653.22
2023-05-11T22:36:50.846Z,99638.13
2023-05-11T22:39:18.933Z,99641.69
2023-05-11T22:41:46.658Z,99637.28
2023-05-11T22:44:15.176Z,99643.34
2023-05-11T22:46:43.147Z,99652.22
2023-05-11T22:49:10.843Z,99647.56
2023-05-11T22:51:38.513Z,99643.03
2023-05-11T22:54:06.082Z,99642.22
2023-05-11T22:56:33.819Z,99642.03
2023-05-11T22:59:01.653Z,99636.53
2023-05-11T23:01:29.343Z,99638.06
2023-05-11T23:03:57.047Z,99643.97
2023-05-11T23:06:24.801Z,99644.50
2023-05-11T23:08:52.355Z,99647.84
2023-05-11T23:11:20.452Z,99642.34
2023-05-11T23:13:48.358Z,99642.16
2023-05-11T23:16:15.897Z,99644.72
2023-05-11T23:18:43.827Z,99655.28
2023-05-11T23:21:11.733Z,99644.56
2023-05-11T23:23:42.968Z,99640.19
2023-05-11T23:26:10.771Z,99649.38
2023-05-11T23:28:38.646Z,99646.72
2023-05-11T23:31:06.232Z,99647.72
2023-05-11T23:33:33.818Z,99642.50
2023-05-11T23:36:02.642Z,99646.31
2023-05-11T23:38:30.223Z,99643.78
2023-05-11T23:40:57.879Z,99655.50
2023-05-11T23:43:25.999Z,99650.31
2023-05-11T23:45:53.642Z,99648.59
2023-05-11T23:48:21.554Z,99653.47
2023-05-11T23:50:49.682Z,99643.72
2023-05-11T23:53:17.278Z,99653.75
2023-05-11T23:55:44.862Z,99657.56
2023-05-11T23:58:12.409Z,99656.75
